Time;durP1;ratioP1;P1;durP2;ratioP2;P2;SDS_P1;SDS_P2;PMS_P1;PMS_P2;Temp;Humidity;BMP_temperature;BMP_pressure;BME280_temperature;BME280_humidity;BME280_pressure;Samples;Min_cycle;Max_cycle;Signal;HPM_P1;HPM_P2
2023/06/17 00:01:14;;;;;;;15.30;8.70;;;;;;;14.13;80.61;98238.23;104591;1265;108489;-64
2023/06/17 00:03:42;;;;;;;12.80;8.70;;;;;;;14.11;80.70;98239.06;104587;1274;97125;-65
2023/06/17 00:06:10;;;;;;;13.10;8.90;;;;;;;14.07;80.80;98240.89;104631;1262;96552;-64
2023/06/17 00:08:38;;;;;;;14.00;9.00;;;;;;;13.99;82.18;98239.48;104338;1267;110196;-63
2023/06/17 00:11:05;;;;;;;17.20;9.10;;;;;;;13.93;81.79;98237.79;104517;1265;96559;-64
2023/06/17 00:13:33;;;;;;;16.40;9.20;;;;;;;13.89;81.62;98233.36;104376;1275;107512;-69
2023/06/17 00:16:00;;;;;;;14.50;9.20;;;;;;;13.86;81.71;98237.44;104423;1265;96544;-63
2023/06/17 00:18:28;;;;;;;11.80;9.10;;;;;;;13.84;81.67;98234.52;104542;1265;97037;-66
2023/06/17 00:20:57;;;;;;;15.20;9.20;;;;;;;13.81;81.80;98231.99;104564;1284;110547;-65
2023/06/17 00:23:25;;;;;;;12.30;8.30;;;;;;;13.81;81.74;98231.45;104375;1269;98176;-65
2023/06/17 00:25:52;;;;;;;13.50;9.20;;;;;;;13.82;81.58;98227.06;104610;1264;107766;-64
2023/06/17 00:28:19;;;;;;;14.20;9.70;;;;;;;13.77;81.91;98225.60;104608;1261;96639;-65
2023/06/17 00:30:47;;;;;;;12.10;9.00;;;;;;;13.71;82.55;98223.45;104534;1265;96555;-65
2023/06/17 00:33:15;;;;;;;10.70;8.90;;;;;;;13.70;82.25;98218.92;104467;1262;96703;-65
2023/06/17 00:35:42;;;;;;;12.80;8.20;;;;;;;13.71;82.42;98219.66;104843;1263;99030;-65
2023/06/17 00:38:10;;;;;;;12.80;8.60;;;;;;;13.71;82.80;98219.51;104976;1262;108213;-65
2023/06/17 00:40:37;;;;;;;11.90;9.20;;;;;;;13.67;82.69;98219.39;104948;1272;96577;-65
2023/06/17 00:43:05;;;;;;;12.00;8.50;;;;;;;13.64;82.78;98215.35;104993;1270;96549;-65
2023/06/17 00:45:38;;;;;;;14.00;9.20;;;;;;;13.62;82.70;98215.37;104970;1260;97710;-65
2023/06/17 00:48:08;;;;;;;12.20;9.20;;;;;;;13.58;82.96;98221.46;104996;1261;99232;-65
2023/06/17 00:50:37;;;;;;;16.50;9.10;;;;;;;13.53;83.16;98227.14;104675;1264;107213;-65
2023/06/17 00:53:05;;;;;;;13.00;9.20;;;;;;;13.50;83.43;98227.35;104657;1264;96743;-65
2023/06/17 00:55:33;;;;;;;12.70;9.00;;;;;;;13.49;83.47;98230.44;104919;1260;96870;-65
2023/06/17 00:58:02;;;;;;;11.80;8.80;;;;;;;13.45;84.41;98226.22;104646;1265;110619;-65
2023/06/17 01:00:29;;;;;;;13.40;9.50;;;;;;;13.43;84.96;98230.40;104771;1262;96734;-65
2023/06/17 01:02:58;;;;;;;11.10;8.30;;;;;;;13.46;84.71;98229.13;104659;1263;97852;-65
2023/06/17 01:05:27;;;;;;;12.80;8.50;;;;;;;13.46;84.51;98226.86;104670;1279;96743;-66
2023/06/17 01:08:30;;;;;;;13.20;9.40;;;;;;;13.47;84.13;98228.80;104650;1268;96956;-67
2023/06/17 01:11:04;;;;;;;11.80;8.50;;;;;;;13.49;83.88;98228.25;104608;1265;110599;-64
2023/06/17 01:13:33;;;;;;;12.30;8.40;;;;;;;13.52;83.83;98229.23;104673;1256;97088;-65
2023/06/17 01:16:04;;;;;;;12.70;9.30;;;;;;;13.57;83.70;98235.66;104999;1262;108618;-64
2023/06/17 01:18:32;;;;;;;11.50;9.20;;;;;;;13.57;83.56;98231.90;104973;1262;97858;-65
2023/06/17 01:21:03;;;;;;;14.00;9.60;;;;;;;13.57;83.49;98230.02;104865;1270;96632;-64
2023/06/17 01:23:35;;;;;;;12.30;9.60;;;;;;;13.52;83.57;98233.45;104965;1262;110837;-63
2023/06/17 01:26:02;;;;;;;14.50;9.80;;;;;;;13.46;83.61;98232.55;104817;1262;99166;-64
2023/06/17 01:28:30;;;;;;;14.60;9.40;;;;;;;13.36;84.32;98233.49;104903;1262;96646;-64
2023/06/17 01:30:58;;;;;;;11.40;9.50;;;;;;;13.30;84.38;98232.34;104989;1262;96564;-64
2023/06/17 01:33:26;;;;;;;14.70;9.10;;;;;;;13.25;84.57;98231.57;104964;1256;97737;-65
2023/06/17 01:36:27;;;;;;;11.50;9.40;;;;;;;13.24;84.64;98231.67;104674;1260;110909;-64
2023/06/17 01:39:05;;;;;;;11.30;8.80;;;;;;;13.16;84.92;98232.37;104492;1273;98712;-69
2023/06/17 01:41:48;;;;;;;12.00;9.40;;;;;;;13.13;85.28;98235.72;104853;1262;108625;-67
2023/06/17 01:44:16;;;;;;;11.40;9.00;;;;;;;13.10;85.24;98235.38;104960;1262;97854;-63
2023/06/17 01:46:44;;;;;;;16.00;9.70;;;;;;;13.07;85.07;98234.17;104993;1262;96833;-63
2023/06/17 01:49:11;;;;;;;13.90;9.60;;;;;;;13.03;85.35;98236.83;104956;1262;110819;-64
2023/06/17 01:51:39;;;;;;;12.00;9.20;;;;;;;13.02;85.56;98237.10;104680;1266;97419;-63
2023/06/17 01:54:06;;;;;;;14.40;9.30;;;;;;;13.01;85.49;98237.36;104944;1262;96569;-64
2023/06/17 01:56:34;;;;;;;12.10;8.60;;;;;;;13.02;85.36;98239.54;104987;1259;96609;-64
2023/06/17 01:59:01;;;;;;;15.00;10.20;;;;;;;13.01;85.54;98242.61;104706;1261;98323;-63
2023/06/17 02:01:28;;;;;;;16.90;9.70;;;;;;;12.98;85.40;98240.73;105008;1256;110942;-63
2023/06/17 02:03:56;;;;;;;22.70;10.00;;;;;;;13.01;85.74;98239.25;104923;1262;97733;-64
2023/06/17 02:06:23;;;;;;;19.30;11.10;;;;;;;13.03;85.68;98238.38;104897;1262;97447;-65
2023/06/17 02:08:52;;;;;;;16.20;10.60;;;;;;;13.02;85.81;98239.79;104889;1262;96684;-64
2023/06/17 02:11:20;;;;;;;13.40;10.00;;;;;;;13.03;85.62;98240.34;104958;1262;96774;-64
2023/06/17 02:13:47;;;;;;;16.20;11.30;;;;;;;13.00;85.90;98242.04;104739;1265;109870;-65
2023/06/17 02:16:14;;;;;;;12.20;10.00;;;;;;;13.00;86.02;98243.92;104966;1262;97905;-64
2023/06/17 02:18:42;;;;;;;17.00;10.90;;;;;;;12.99;85.71;98237.61;104976;1267;96643;-64
2023/06/17 02:21:09;;;;;;;12.40;9.60;;;;;;;12.98;85.72;98240.17;104656;1264;96536;-65
2023/06/17 02:23:37;;;;;;;14.60;9.70;;;;;;;13.00;85.91;98242.46;105033;1261;97441;-64
2023/06/17 02:26:04;;;;;;;11.60;9.80;;;;;;;13.02;85.60;98245.67;104964;1263;96544;-65
2023/06/17 02:28:31;;;;;;;12.00;9.40;;;;;;;13.04;85.68;98244.91;105008;1262;97852;-65
2023/06/17 02:30:58;;;;;;;13.40;9.70;;;;;;;13.04;85.62;98249.98;105003;1269;97855;-65
2023/06/17 02:33:27;;;;;;;17.00;10.30;;;;;;;13.04;85.68;98255.71;104944;1261;96633;-64
2023/06/17 02:35:55;;;;;;;13.90;9.70;;;;;;;13.03;85.43;98260.94;104986;1263;96622;-65
2023/06/17 02:38:24;;;;;;;10.60;8.70;;;;;;;12.97;85.56;98262.68;105009;1260;110858;-65
2023/06/17 02:40:52;;;;;;;14.10;9.40;;;;;;;12.93;85.72;98263.56;105091;1271;98280;-64
2023/06/17 02:43:19;;;;;;;12.70;9.40;;;;;;;12.88;85.59;98264.52;104685;1256;96540;-65
2023/06/17 02:45:46;;;;;;;13.00;9.10;;;;;;;12.82;85.57;98263.24;104955;1260;97838;-65
2023/06/17 02:48:13;;;;;;;11.90;9.30;;;;;;;12.78;85.78;98266.76;104948;1260;96809;-65
2023/06/17 02:50:41;;;;;;;13.00;9.80;;;;;;;12.79;86.06;98266.71;104948;1262;96544;-65
2023/06/17 02:53:08;;;;;;;13.40;8.80;;;;;;;12.83;86.18;98264.48;104968;1264;96545;-65
2023/06/17 02:55:36;;;;;;;11.50;8.60;;;;;;;12.85;86.53;98266.62;104820;1262;97477;-67
2023/06/17 02:58:03;;;;;;;12.40;8.20;;;;;;;12.91;86.74;98269.08;104854;1260;97848;-65
2023/06/17 03:00:30;;;;;;;14.60;8.50;;;;;;;12.96;86.96;98267.91;104714;1260;97863;-65
2023/06/17 03:02:57;;;;;;;13.30;9.10;;;;;;;13.01;87.33;98266.30;105019;1257;96612;-66
2023/06/17 03:05:25;;;;;;;12.00;8.50;;;;;;;13.05;87.43;98266.42;104740;1260;96558;-70
2023/06/17 03:07:53;;;;;;;10.40;8.30;;;;;;;13.11;87.60;98264.95;104957;1262;97446;-64
2023/06/17 03:10:20;;;;;;;12.10;9.30;;;;;;;13.14;88.10;98262.16;105003;1263;97433;-64
2023/06/17 03:12:49;;;;;;;11.90;8.20;;;;;;;13.17;88.27;98258.65;105021;1256;96969;-65
2023/06/17 03:15:17;;;;;;;10.20;8.10;;;;;;;13.24;88.60;98259.58;104772;1263;109862;-65
2023/06/17 03:17:44;;;;;;;10.60;7.70;;;;;;;13.27;88.61;98258.05;105002;1267;99218;-65
2023/06/17 03:20:13;;;;;;;13.40;8.10;;;;;;;13.30;89.50;98257.52;104954;1262;108870;-65
2023/06/17 03:22:40;;;;;;;10.60;7.90;;;;;;;13.33;89.90;98257.30;104999;1271;96652;-65
2023/06/17 03:25:08;;;;;;;13.40;8.10;;;;;;;13.38;89.69;98259.11;104668;1264;97349;-65
2023/06/17 03:27:35;;;;;;;9.80;7.90;;;;;;;13.42;89.75;98261.27;104748;1263;108602;-65
2023/06/17 03:30:03;;;;;;;8.80;7.30;;;;;;;13.48;90.06;98259.83;104956;1262;96670;-65
2023/06/17 03:32:30;;;;;;;10.00;8.30;;;;;;;13.52;90.16;98258.95;104932;1261;96559;-65
2023/06/17 03:34:57;;;;;;;10.40;7.90;;;;;;;13.55;90.25;98255.77;104980;1270;96649;-65
2023/06/17 03:37:24;;;;;;;9.80;8.10;;;;;;;13.59;90.33;98260.67;105012;1258;96556;-65
2023/06/17 03:39:52;;;;;;;11.30;8.80;;;;;;;13.61;90.20;98259.70;105039;1272;96659;-64
2023/06/17 03:42:19;;;;;;;12.60;8.60;;;;;;;13.65;90.15;98262.37;104951;1256;97874;-65
2023/06/17 03:44:46;;;;;;;12.50;8.00;;;;;;;13.72;89.87;98255.71;104928;1262;96569;-65
2023/06/17 03:47:13;;;;;;;11.50;8.40;;;;;;;13.76;90.40;98257.98;104765;1262;96556;-65
2023/06/17 03:49:40;;;;;;;11.10;8.20;;;;;;;13.74;90.76;98259.66;105007;1257;97062;-64
2023/06/17 03:52:07;;;;;;;11.00;8.60;;;;;;;13.78;90.49;98263.02;104967;1270;97352;-65
2023/06/17 03:54:34;;;;;;;9.40;7.90;;;;;;;13.83;90.41;98262.43;104963;1263;96572;-65
2023/06/17 03:57:02;;;;;;;9.80;8.10;;;;;;;13.87;90.10;98262.50;104975;1262;97845;-66
2023/06/17 03:59:29;;;;;;;11.30;8.30;;;;;;;13.91;89.91;98257.34;104878;1262;97747;-65
2023/06/17 04:01:57;;;;;;;13.30;8.50;;;;;;;13.94;89.94;98262.39;104929;1260;97848;-64
2023/06/17 04:04:24;;;;;;;9.40;8.10;;;;;;;14.02;90.01;98262.00;104735;1273;98167;-65
2023/06/17 04:06:52;;;;;;;12.50;8.90;;;;;;;14.06;90.08;98257.55;104911;1262;96581;-64
2023/06/17 04:09:19;;;;;;;11.50;8.90;;;;;;;14.13;89.90;98257.42;104981;1279;97442;-65
2023/06/17 04:11:46;;;;;;;12.00;9.00;;;;;;;14.25;89.63;98258.67;104973;1260;96680;-65
2023/06/17 04:14:13;;;;;;;10.50;8.20;;;;;;;14.36;89.65;98256.30;104919;1256;96546;-64
2023/06/17 04:16:41;;;;;;;15.10;9.90;;;;;;;14.49;89.64;98254.63;104784;1260;97884;-65
2023/06/17 04:19:09;;;;;;;12.60;9.30;;;;;;;14.63;89.40;98250.91;104953;1256;96541;-66
2023/06/17 04:21:36;;;;;;;14.50;10.10;;;;;;;14.72;88.83;98256.82;104992;1256;96898;-66
2023/06/17 04:24:03;;;;;;;14.10;9.70;;;;;;;14.77;88.84;98256.81;104883;1270;96661;-66
2023/06/17 04:26:30;;;;;;;15.90;10.10;;;;;;;14.84;88.45;98255.67;104783;1262;96587;-69
2023/06/17 04:29:00;;;;;;;12.40;9.10;;;;;;;14.91;88.31;98263.90;104729;1262;97828;-67
2023/06/17 04:31:27;;;;;;;12.40;9.40;;;;;;;14.95;88.12;98264.56;104906;1262;108285;-69
2023/06/17 04:33:54;;;;;;;12.80;8.60;;;;;;;15.03;87.99;98266.75;104987;1272;96546;-65
2023/06/17 04:36:24;;;;;;;14.00;8.50;;;;;;;15.16;87.95;98266.37;104945;1272;96631;-65
2023/06/17 04:38:53;;;;;;;12.70;8.40;;;;;;;15.28;87.44;98263.36;104970;1270;110184;-66
2023/06/17 04:41:21;;;;;;;11.40;7.40;;;;;;;15.45;87.16;98259.52;105088;1263;99271;-65
2023/06/17 04:43:48;;;;;;;10.20;7.70;;;;;;;15.60;86.56;98263.92;104958;1262;96523;-65
2023/06/17 04:46:19;;;;;;;10.20;8.30;;;;;;;15.72;86.17;98273.51;104977;1259;96530;-66
2023/06/17 04:48:47;;;;;;;11.40;8.90;;;;;;;15.79;85.54;98267.77;104640;1257;98331;-66
2023/06/17 04:51:17;;;;;;;12.70;8.40;;;;;;;15.81;84.85;98268.11;104951;1271;96650;-66
2023/06/17 04:53:44;;;;;;;10.80;8.70;;;;;;;15.81;84.97;98273.34;104680;1271;98892;-66
2023/06/17 04:56:12;;;;;;;14.00;10.20;;;;;;;15.81;84.60;98276.86;104866;1261;96556;-65
2023/06/17 04:58:39;;;;;;;11.80;9.50;;;;;;;15.72;84.83;98276.75;104950;1257;96630;-66
2023/06/17 05:01:06;;;;;;;13.50;9.70;;;;;;;15.66;84.95;98274.64;104952;1262;96547;-66
2023/06/17 05:03:33;;;;;;;11.50;8.90;;;;;;;15.63;85.08;98277.73;104966;1262;97334;-66
2023/06/17 05:06:00;;;;;;;11.90;9.80;;;;;;;15.65;85.24;98281.01;104956;1262;97873;-67
2023/06/17 05:08:27;;;;;;;12.40;8.90;;;;;;;15.72;85.17;98282.91;104856;1270;96546;-65
2023/06/17 05:10:54;;;;;;;13.70;9.40;;;;;;;15.77;84.63;98284.42;104948;1262;96914;-65
2023/06/17 05:13:21;;;;;;;13.10;9.50;;;;;;;15.83;84.63;98280.63;104992;1271;96554;-66
2023/06/17 05:15:49;;;;;;;13.20;9.40;;;;;;;15.87;84.17;98281.67;104919;1261;97890;-65
2023/06/17 05:18:16;;;;;;;12.10;9.20;;;;;;;15.90;84.07;98286.63;105048;1270;96564;-65
2023/06/17 05:20:43;;;;;;;13.10;9.40;;;;;;;15.95;84.43;98284.31;104906;1263;96542;-66
2023/06/17 05:23:10;;;;;;;15.90;9.40;;;;;;;16.03;83.81;98284.90;104768;1260;97488;-66
2023/06/17 05:25:37;;;;;;;15.20;10.00;;;;;;;16.01;83.73;98284.39;104915;1261;96561;-65
2023/06/17 05:28:10;;;;;;;13.20;9.90;;;;;;;16.00;83.91;98283.65;104938;1263;96598;-66
2023/06/17 05:30:40;;;;;;;13.00;9.80;;;;;;;15.99;83.52;98281.09;104953;1262;109278;-66
2023/06/17 05:33:07;;;;;;;17.20;10.60;;;;;;;15.95;83.63;98286.59;104940;1256;97427;-66
2023/06/17 05:35:35;;;;;;;13.60;10.00;;;;;;;15.97;83.92;98287.30;104996;1256;96885;-65
2023/06/17 05:38:02;;;;;;;14.40;10.50;;;;;;;16.05;84.09;98289.76;104752;1262;97873;-65
2023/06/17 05:40:29;;;;;;;16.90;11.30;;;;;;;16.23;83.68;98286.60;104976;1270;96746;-65
2023/06/17 05:42:56;;;;;;;13.60;10.70;;;;;;;16.36;83.09;98287.27;104963;1262;97858;-66
2023/06/17 05:45:23;;;;;;;14.30;11.00;;;;;;;16.46;82.76;98286.85;104989;1261;96630;-65
2023/06/17 05:47:50;;;;;;;17.70;11.50;;;;;;;16.52;83.15;98287.69;104978;1261;96636;-66
2023/06/17 05:50:18;;;;;;;17.60;12.00;;;;;;;16.66;82.30;98287.74;104707;1271;97696;-66
2023/06/17 05:52:45;;;;;;;16.50;12.30;;;;;;;16.72;82.09;98287.63;104836;1262;96549;-66
2023/06/17 05:55:13;;;;;;;20.00;12.00;;;;;;;16.78;81.89;98288.92;104765;1257;96554;-66
2023/06/17 05:57:40;;;;;;;17.70;12.30;;;;;;;16.85;81.54;98287.02;104959;1261;97842;-62
2023/06/17 06:00:08;;;;;;;13.40;10.50;;;;;;;16.98;81.48;98292.23;105031;1271;97553;-62
2023/06/17 06:02:35;;;;;;;15.10;11.40;;;;;;;16.95;80.35;98292.43;105015;1262;96549;-62
2023/06/17 06:05:04;;;;;;;16.30;12.00;;;;;;;16.97;80.52;98293.24;104849;1262;96644;-62
2023/06/17 06:07:31;;;;;;;15.20;11.00;;;;;;;17.08;80.58;98295.77;104909;1269;97752;-62
2023/06/17 06:09:58;;;;;;;15.70;11.00;;;;;;;17.15;80.01;98298.51;104767;1263;97409;-62
2023/06/17 06:12:25;;;;;;;12.40;10.50;;;;;;;17.21;80.07;98301.30;104948;1256;96549;-62
2023/06/17 06:14:54;;;;;;;14.50;10.60;;;;;;;17.23;79.60;98306.96;104974;1270;97076;-62
2023/06/17 06:17:21;;;;;;;15.10;11.20;;;;;;;17.22;79.13;98306.46;105030;1269;96549;-62
2023/06/17 06:19:48;;;;;;;11.70;10.30;;;;;;;17.20;79.28;98311.57;104851;1270;96554;-62
2023/06/17 06:22:16;;;;;;;13.80;11.60;;;;;;;17.21;78.56;98309.15;104895;1258;97494;-62
2023/06/17 06:24:44;;;;;;;12.40;11.10;;;;;;;17.24;79.27;98304.22;104819;1270;96481;-62
2023/06/17 06:27:11;;;;;;;14.40;11.90;;;;;;;17.40;78.84;98308.92;104884;1262;110267;-62
2023/06/17 06:29:39;;;;;;;14.80;11.90;;;;;;;17.47;77.71;98304.39;104919;1262;99279;-62
2023/06/17 06:32:07;;;;;;;14.00;11.30;;;;;;;17.55;77.79;98305.70;104826;1262;97456;-62
2023/06/17 06:34:34;;;;;;;12.30;10.70;;;;;;;17.64;78.00;98303.09;104845;1267;97378;-61
2023/06/17 06:37:01;;;;;;;16.10;10.90;;;;;;;17.97;78.28;98303.60;104721;1272;96545;-62
2023/06/17 06:39:29;;;;;;;11.10;9.50;;;;;;;18.22;77.47;98309.63;104542;1270;517668;-62
2023/06/17 06:41:56;;;;;;;11.40;9.80;;;;;;;18.53;77.11;98310.44;104980;1270;98878;-62
2023/06/17 06:44:23;;;;;;;12.50;9.90;;;;;;;18.80;76.58;98309.65;105008;1262;96587;-62
2023/06/17 06:46:50;;;;;;;12.70;10.20;;;;;;;18.98;75.37;98309.05;104737;1262;96552;-61
2023/06/17 06:49:18;;;;;;;12.90;10.20;;;;;;;19.12;74.87;98310.83;104969;1270;97849;-64
2023/06/17 06:51:45;;;;;;;17.40;10.80;;;;;;;19.24;74.27;98311.02;104889;1262;96563;-62
2023/06/17 06:54:12;;;;;;;14.80;10.10;;;;;;;19.32;73.63;98310.80;104947;1260;96724;-62
2023/06/17 06:56:39;;;;;;;14.10;10.30;;;;;;;19.51;73.72;98314.08;105015;1270;96539;-60
2023/06/17 06:59:06;;;;;;;12.80;9.60;;;;;;;19.78;72.72;98313.73;104871;1272;96640;-64
2023/06/17 07:01:34;;;;;;;12.30;10.70;;;;;;;19.93;70.85;98314.42;105040;1263;96548;-62
2023/06/17 07:04:01;;;;;;;15.00;10.40;;;;;;;20.04;71.29;98314.84;104923;1266;96649;-62
2023/06/17 07:06:28;;;;;;;11.50;10.30;;;;;;;20.27;70.66;98314.11;105021;1270;96684;-61
2023/06/17 07:08:55;;;;;;;10.80;9.40;;;;;;;20.39;69.75;98316.27;105009;1262;96569;-62
2023/06/17 07:11:23;;;;;;;10.50;9.10;;;;;;;20.45;69.17;98319.46;105008;1270;96651;-62
2023/06/17 07:13:50;;;;;;;9.70;8.70;;;;;;;20.49;68.94;98316.77;104812;1270;96505;-62
2023/06/17 07:16:17;;;;;;;10.20;8.80;;;;;;;20.57;69.42;98312.14;104826;1268;97842;-65
2023/06/17 07:18:44;;;;;;;11.20;9.00;;;;;;;20.71;68.96;98315.85;104798;1272;97865;-62
2023/06/17 07:21:12;;;;;;;10.50;9.10;;;;;;;20.78;69.02;98316.05;104677;1279;96788;-67
2023/06/17 07:23:39;;;;;;;10.70;8.80;;;;;;;20.78;68.44;98315.89;104733;1265;96642;-62
2023/06/17 07:26:07;;;;;;;8.50;7.60;;;;;;;20.82;67.79;98317.89;104949;1263;96609;-62
2023/06/17 07:28:34;;;;;;;8.30;7.30;;;;;;;20.84;67.64;98314.39;104956;1272;96661;-61
2023/06/17 07:31:02;;;;;;;8.30;7.30;;;;;;;20.88;67.68;98316.95;104976;1270;96498;-62
2023/06/17 07:33:31;;;;;;;10.50;7.30;;;;;;;20.90;67.38;98313.79;105008;1263;96664;-62
2023/06/17 07:35:58;;;;;;;7.60;6.80;;;;;;;20.88;66.74;98312.11;104985;1270;96563;-62
2023/06/17 07:38:25;;;;;;;9.00;7.30;;;;;;;20.85;67.03;98308.83;104848;1270;96570;-60
2023/06/17 07:40:52;;;;;;;7.80;6.60;;;;;;;20.98;66.95;98310.98;105297;1270;97455;-59
2023/06/17 07:43:19;;;;;;;7.90;7.10;;;;;;;21.04;66.66;98311.55;104830;1271;96615;-62
2023/06/17 07:45:48;;;;;;;7.60;6.90;;;;;;;21.11;66.26;98312.66;104908;1264;97892;-63
2023/06/17 07:48:15;;;;;;;9.20;6.70;;;;;;;21.18;64.62;98307.36;104713;1260;96602;-62
2023/06/17 07:50:44;;;;;;;8.90;6.70;;;;;;;21.12;65.42;98309.50;104679;1265;110203;-61
2023/06/17 07:53:11;;;;;;;9.40;7.30;;;;;;;21.13;65.05;98309.97;104983;1263;97954;-62
2023/06/17 07:55:39;;;;;;;8.10;6.80;;;;;;;21.10;65.22;98307.27;104937;1260;96555;-60
2023/06/17 07:58:06;;;;;;;7.30;6.60;;;;;;;21.11;64.81;98304.71;105026;1262;96642;-62
2023/06/17 08:00:33;;;;;;;7.20;6.50;;;;;;;21.24;64.41;98304.67;104985;1263;97658;-62
2023/06/17 08:03:01;;;;;;;6.90;6.20;;;;;;;21.37;63.45;98302.30;104836;1264;97138;-62
2023/06/17 08:05:28;;;;;;;8.10;6.60;;;;;;;21.61;64.08;98303.27;104950;1271;98931;-62
2023/06/17 08:07:56;;;;;;;7.90;7.10;;;;;;;22.04;62.80;98300.34;104928;1262;96564;-61
2023/06/17 08:10:28;;;;;;;7.50;6.80;;;;;;;22.46;62.01;98299.45;104948;1262;97124;-62
2023/06/17 08:12:55;;;;;;;7.90;7.10;;;;;;;22.58;59.09;98293.91;105032;1262;96536;-61
2023/06/17 08:15:22;;;;;;;6.60;5.90;;;;;;;22.60;58.57;98288.50;105009;1267;97445;-62
2023/06/17 08:17:52;;;;;;;5.90;5.40;;;;;;;22.64;59.29;98289.67;104964;1262;96543;-61
2023/06/17 08:20:21;;;;;;;6.60;6.00;;;;;;;23.07;59.80;98295.08;104963;1270;108356;-61
2023/06/17 08:22:49;;;;;;;7.00;6.20;;;;;;;23.16;58.25;98295.27;104649;1261;96754;-62
2023/06/17 08:25:16;;;;;;;7.60;5.60;;;;;;;23.04;57.98;98290.53;104741;1273;98392;-62
2023/06/17 08:27:47;;;;;;;6.00;5.20;;;;;;;22.88;58.57;98293.09;104935;1260;96543;-61
2023/06/17 08:30:15;;;;;;;6.40;5.20;;;;;;;22.84;58.36;98291.04;105010;1270;99506;-62
2023/06/17 08:32:42;;;;;;;5.20;4.70;;;;;;;22.88;58.39;98287.66;104785;1270;108545;-61
2023/06/17 08:35:10;;;;;;;6.60;5.10;;;;;;;22.98;57.69;98288.65;104927;1260;96536;-62
2023/06/17 08:37:38;;;;;;;6.40;5.00;;;;;;;23.42;58.15;98287.83;104893;1261;97086;-62
2023/06/17 08:40:08;;;;;;;5.20;4.70;;;;;;;23.85;56.30;98284.77;104710;1264;96549;-62
2023/06/17 08:42:38;;;;;;;4.40;4.00;;;;;;;24.34;55.60;98287.29;104880;1270;99220;-63
2023/06/17 08:45:09;;;;;;;4.90;4.50;;;;;;;24.67;52.47;98282.02;104847;1260;108605;-63
2023/06/17 08:47:42;;;;;;;5.10;4.30;;;;;;;24.98;52.79;98282.22;104930;1270;97884;-63
2023/06/17 08:50:15;;;;;;;5.30;4.00;;;;;;;25.32;52.46;98284.61;104991;1267;97718;-62
2023/06/17 08:52:44;;;;;;;4.20;3.80;;;;;;;25.30;52.54;98286.57;104698;1273;110023;-63
2023/06/17 08:55:11;;;;;;;5.20;3.80;;;;;;;25.05;52.07;98291.96;104989;1262;99613;-62
2023/06/17 08:57:40;;;;;;;5.00;3.90;;;;;;;24.70;53.17;98292.23;104996;1271;107270;-63
2023/06/17 09:00:11;;;;;;;4.30;3.90;;;;;;;24.57;53.47;98289.98;104915;1260;97815;-62
2023/06/17 09:02:43;;;;;;;5.80;4.10;;;;;;;24.43;53.46;98289.83;104673;1264;96609;-62
2023/06/17 09:05:10;;;;;;;4.00;3.50;;;;;;;24.27;53.84;98290.70;104981;1270;110827;-62
2023/06/17 09:07:38;;;;;;;5.30;4.10;;;;;;;24.15;53.92;98287.40;104889;1263;98712;-62
2023/06/17 09:10:08;;;;;;;4.50;3.80;;;;;;;23.91;53.60;98281.45;105046;1266;108747;-62
2023/06/17 09:12:39;;;;;;;4.10;3.60;;;;;;;23.55;53.30;98275.60;104661;1272;96813;-62
2023/06/17 09:15:08;;;;;;;4.40;3.60;;;;;;;23.58;54.38;98273.27;104996;1270;97812;-62
2023/06/17 09:17:38;;;;;;;4.00;3.60;;;;;;;24.11;55.77;98275.03;104967;1270;110332;-62
2023/06/17 09:20:11;;;;;;;5.20;3.60;;;;;;;24.88;54.17;98281.53;104716;1272;98232;-62
2023/06/17 09:22:43;;;;;;;3.80;3.50;;;;;;;25.26;52.43;98285.59;104645;1265;107091;-62
2023/06/17 09:25:13;;;;;;;4.00;3.50;;;;;;;25.58;52.43;98282.05;104943;1270;96614;-61
2023/06/17 09:27:48;;;;;;;4.40;3.50;;;;;;;26.09;52.04;98273.67;104967;1263;96469;-62
2023/06/17 09:30:37;;;;;;;4.30;3.50;;;;;;;26.86;50.81;98272.17;104925;1269;112384;-62
2023/06/17 09:33:17;;;;;;;5.00;3.20;;;;;;;27.27;48.36;98272.48;104584;1273;98532;-59
2023/06/17 09:35:45;;;;;;;3.50;3.20;;;;;;;27.52;46.66;98272.79;105646;1264;108195;-62
2023/06/17 09:38:15;;;;;;;3.90;3.30;;;;;;;27.73;45.52;98275.60;104711;1264;96559;-62
2023/06/17 09:40:42;;;;;;;3.20;2.90;;;;;;;27.86;46.29;98271.66;104974;1270;96572;-63
2023/06/17 09:43:12;;;;;;;4.80;3.00;;;;;;;28.27;44.25;98263.27;104959;1270;110888;-62
2023/06/17 09:46:03;;;;;;;4.20;2.70;;;;;;;28.31;42.43;98262.43;104578;1264;100004;-62
2023/06/17 09:48:34;;;;;;;4.70;2.70;;;;;;;28.03;42.79;98263.81;104621;1267;108091;-62
2023/06/17 09:51:05;;;;;;;5.60;3.60;;;;;;;27.86;42.89;98259.50;104819;1270;96863;-62
2023/06/17 09:53:33;;;;;;;4.10;3.60;;;;;;;28.01;44.52;98255.97;104609;1257;97754;-62
2023/06/17 09:56:10;;;;;;;4.90;3.70;;;;;;;28.08;44.34;98255.23;104979;1260;110996;-62
2023/06/17 09:58:40;;;;;;;4.20;3.80;;;;;;;27.96;43.20;98259.10;104823;1271;98790;-62
2023/06/17 10:01:11;;;;;;;3.80;3.50;;;;;;;27.75;43.77;98259.15;104900;1267;109713;-61
2023/06/17 10:03:42;;;;;;;4.50;3.40;;;;;;;27.67;44.31;98257.09;104674;1270;96543;-62
2023/06/17 10:06:11;;;;;;;5.20;3.10;;;;;;;27.56;45.20;98253.66;104980;1261;96565;-64
2023/06/17 10:08:43;;;;;;;4.20;3.50;;;;;;;27.34;45.12;98245.96;104680;1267;109926;-62
2023/06/17 10:11:18;;;;;;;5.00;3.10;;;;;;;26.95;45.13;98251.04;105041;1266;99139;-61
2023/06/17 10:13:53;;;;;;;3.70;3.10;;;;;;;26.60;46.17;98254.97;104862;1263;107707;-61
2023/06/17 10:16:23;;;;;;;7.90;3.20;;;;;;;26.80;46.31;98250.61;104923;1270;96572;-61
2023/06/17 10:18:53;;;;;;;2.60;2.30;;;;;;;27.18;45.27;98252.23;104962;1263;96858;-62
2023/06/17 10:21:24;;;;;;;2.90;2.60;;;;;;;27.56;42.47;98252.19;104704;1273;109419;-62
2023/06/17 10:23:56;;;;;;;2.60;2.40;;;;;;;28.15;42.02;98243.37;104978;1260;98901;-61
2023/06/17 10:26:23;;;;;;;2.80;2.50;;;;;;;28.52;41.31;98243.59;104934;1261;108631;-62
2023/06/17 10:28:54;;;;;;;4.20;2.30;;;;;;;28.81;39.91;98242.50;104919;1273;96615;-61
2023/06/17 10:31:27;;;;;;;3.20;2.50;;;;;;;29.16;41.24;98234.02;104951;1261;96552;-62
2023/06/17 10:33:57;;;;;;;3.20;2.70;;;;;;;29.66;40.62;98232.66;104972;1258;111926;-62
2023/06/17 10:36:27;;;;;;;3.30;3.00;;;;;;;29.98;39.02;98234.89;104935;1261;98578;-62
2023/06/17 10:38:56;;;;;;;3.00;2.70;;;;;;;30.22;39.18;98235.42;104864;1264;107618;-60
2023/06/17 10:41:42;;;;;;;2.80;2.50;;;;;;;30.75;38.02;98236.09;104930;1262;96541;-62
2023/06/17 10:44:35;;;;;;;3.60;2.40;;;;;;;30.94;37.42;98237.49;104968;1261;96654;-63
2023/06/17 10:47:15;;;;;;;2.90;2.50;;;;;;;31.25;37.25;98243.23;104534;1264;110475;-63
2023/06/17 10:49:42;;;;;;;;;;;;;;;31.44;36.31;98243.86;104986;1260;99510;-61
2023/06/17 10:52:14;;;;;;;2.60;2.30;;;;;;;31.20;35.31;98242.52;104930;1270;96593;-65
2023/06/17 10:54:45;;;;;;;2.80;2.50;;;;;;;31.35;35.69;98239.75;104914;1268;96891;-61
2023/06/17 10:57:13;;;;;;;3.30;2.50;;;;;;;31.73;33.52;98237.23;104664;1257;96666;-62
2023/06/17 10:59:40;;;;;;;3.50;2.40;;;;;;;31.65;33.73;98231.13;104803;1273;96630;-62
2023/06/17 11:02:08;;;;;;;3.50;2.40;;;;;;;31.94;34.24;98234.80;104955;1263;96553;-61
2023/06/17 11:04:40;;;;;;;2.30;2.10;;;;;;;32.08;34.47;98240.70;104699;1264;107912;-62
2023/06/17 11:07:08;;;;;;;2.60;2.40;;;;;;;31.93;34.76;98238.12;104694;1271;96641;-62
2023/06/17 11:09:36;;;;;;;2.90;2.60;;;;;;;31.75;35.11;98236.03;105013;1261;96562;-61
2023/06/17 11:12:04;;;;;;;2.90;2.70;;;;;;;31.08;34.99;98233.14;105002;1261;110911;-61
2023/06/17 11:14:37;;;;;;;3.20;2.70;;;;;;;30.96;35.52;98230.29;104804;1268;98922;-61
2023/06/17 11:17:04;;;;;;;2.80;2.10;;;;;;;31.36;35.10;98229.13;104969;1270;108539;-62
2023/06/17 11:19:31;;;;;;;3.70;2.10;;;;;;;31.82;34.23;98227.54;104959;1261;97743;-62
2023/06/17 11:22:06;;;;;;;2.70;2.10;;;;;;;31.93;33.22;98230.25;104971;1257;96658;-62
2023/06/17 11:24:34;;;;;;;2.50;2.30;;;;;;;31.64;33.03;98225.90;104965;1261;111039;-62